sensor_id;sensor_type;location;lat;lon;timestamp;temperature;humidity
11511;DHT22;5812;48.864;9.190;2023-04-01T00:00:57;8.60;1.00
11511;DHT22;5812;48.864;9.190;2023-04-01T00:03:24;8.50;1.00
11511;DHT22;5812;48.864;9.190;2023-04-01T00:05:50;8.50;1.00
11511;DHT22;5812;48.864;9.190;2023-04-01T00:08:16;8.50;1.00
11511;DHT22;5812;48.864;9.190;2023-04-01T00:10:42;8.70;1.00
11511;DHT22;5812;48.864;9.190;2023-04-01T00:13:07;8.70;1.00
11511;DHT22;5812;48.864;9.190;2023-04-01T00:15:33;8.70;1.00
11511;DHT22;5812;48.864;9.190;2023-04-01T00:17:59;8.80;1.00
11511;DHT22;5812;48.864;9.190;2023-04-01T00:20:26;8.80;1.00
11511;DHT22;5812;48.864;9.190;2023-04-01T00:22:51;8.80;1.00
11511;DHT22;5812;48.864;9.190;2023-04-01T00:25:17;8.80;1.00
11511;DHT22;5812;48.864;9.190;2023-04-01T00:27:43;8.80;1.00
11511;DHT22;5812;48.864;9.190;2023-04-01T00:30:10;9.00;1.00
11511;DHT22;5812;48.864;9.190;2023-04-01T00:32:36;8.70;1.00
11511;DHT22;5812;48.864;9.190;2023-04-01T00:35:02;8.70;1.00
11511;DHT22;5812;48.864;9.190;2023-04-01T00:37:28;8.70;1.00
11511;DHT22;5812;48.864;9.190;2023-04-01T00:39:54;8.60;1.00
11511;DHT22;5812;48.864;9.190;2023-04-01T00:42:19;8.70;1.00
11511;DHT22;5812;48.864;9.190;2023-04-01T00:44:50;8.60;1.00
11511;DHT22;5812;48.864;9.190;2023-04-01T00:47:16;8.80;1.00
11511;DHT22;5812;48.864;9.190;2023-04-01T00:49:46;8.80;1.00
11511;DHT22;5812;48.864;9.190;2023-04-01T00:52:18;8.80;1.00
11511;DHT22;5812;48.864;9.190;2023-04-01T00:54:47;8.80;1.00
11511;DHT22;5812;48.864;9.190;2023-04-01T00:57:21;8.80;1.00
11511;DHT22;5812;48.864;9.190;2023-04-01T00:59:50;8.90;1.00
11511;DHT22;5812;48.864;9.190;2023-04-01T01:02:19;8.80;1.00
11511;DHT22;5812;48.864;9.190;2023-04-01T01:04:45;8.80;1.00
11511;DHT22;5812;48.864;9.190;2023-04-01T01:31:23;8.90;1.00
11511;DHT22;5812;48.864;9.190;2023-04-01T01:36:31;8.80;1.00
11511;DHT22;5812;48.864;9.190;2023-04-01T01:39:01;8.90;1.00
11511;DHT22;5812;48.864;9.190;2023-04-01T01:41:27;8.90;1.00
11511;DHT22;5812;48.864;9.190;2023-04-01T01:43:55;8.80;1.00
11511;DHT22;5812;48.864;9.190;2023-04-01T01:46:23;8.90;1.00
11511;DHT22;5812;48.864;9.190;2023-04-01T01:48:49;8.90;1.00
11511;DHT22;5812;48.864;9.190;2023-04-01T01:51:18;8.80;1.00
11511;DHT22;5812;48.864;9.190;2023-04-01T01:53:44;8.80;1.00
11511;DHT22;5812;48.864;9.190;2023-04-01T01:56:11;8.80;1.00
11511;DHT22;5812;48.864;9.190;2023-04-01T01:58:47;8.70;1.00
11511;DHT22;5812;48.864;9.190;2023-04-01T02:01:20;8.60;1.00
11511;DHT22;5812;48.864;9.190;2023-04-01T02:03:48;8.60;1.00
11511;DHT22;5812;48.864;9.190;2023-04-01T02:06:16;8.60;1.00
11511;DHT22;5812;48.864;9.190;2023-04-01T02:08:47;8.70;1.00
11511;DHT22;5812;48.864;9.190;2023-04-01T02:11:17;8.70;1.00
11511;DHT22;5812;48.864;9.190;2023-04-01T02:13:58;8.60;1.00
11511;DHT22;5812;48.864;9.190;2023-04-01T02:16:39;8.70;1.00
11511;DHT22;5812;48.864;9.190;2023-04-01T02:19:08;8.60;1.00
11511;DHT22;5812;48.864;9.190;2023-04-01T02:21:37;8.60;1.00
11511;DHT22;5812;48.864;9.190;2023-04-01T02:24:09;8.60;1.00
11511;DHT22;5812;48.864;9.190;2023-04-01T02:26:35;8.50;1.00
11511;DHT22;5812;48.864;9.190;2023-04-01T02:29:02;8.50;1.00
11511;DHT22;5812;48.864;9.190;2023-04-01T02:31:29;8.50;1.00
11511;DHT22;5812;48.864;9.190;2023-04-01T02:33:56;8.50;1.00
11511;DHT22;5812;48.864;9.190;2023-04-01T02:36:22;8.50;1.00
11511;DHT22;5812;48.864;9.190;2023-04-01T02:38:49;8.40;1.00
11511;DHT22;5812;48.864;9.190;2023-04-01T02:41:16;9.40;1.00
11511;DHT22;5812;48.864;9.190;2023-04-01T02:43:42;8.40;1.00
11511;DHT22;5812;48.864;9.190;2023-04-01T02:46:07;8.40;1.00
11511;DHT22;5812;48.864;9.190;2023-04-01T02:48:33;8.40;1.00
11511;DHT22;5812;48.864;9.190;2023-04-01T02:50:59;8.50;1.00
11511;DHT22;5812;48.864;9.190;2023-04-01T02:53:24;8.40;1.00
11511;DHT22;5812;48.864;9.190;2023-04-01T02:55:50;8.30;1.00
11511;DHT22;5812;48.864;9.190;2023-04-01T02:58:17;8.30;1.00
11511;DHT22;5812;48.864;9.190;2023-04-01T03:00:43;8.30;1.00
11511;DHT22;5812;48.864;9.190;2023-04-01T03:03:09;8.40;1.00
11511;DHT22;5812;48.864;9.190;2023-04-01T03:05:34;8.40;1.00
11511;DHT22;5812;48.864;9.190;2023-04-01T03:08:01;8.30;1.00
11511;DHT22;5812;48.864;9.190;2023-04-01T03:10:26;8.40;1.00
11511;DHT22;5812;48.864;9.190;2023-04-01T03:12:52;8.40;1.00
11511;DHT22;5812;48.864;9.190;2023-04-01T03:15:18;8.40;1.00
11511;DHT22;5812;48.864;9.190;2023-04-01T03:17:43;8.40;1.00
11511;DHT22;5812;48.864;9.190;2023-04-01T03:20:10;8.50;1.00
11511;DHT22;5812;48.864;9.190;2023-04-01T03:22:36;8.40;1.00
11511;DHT22;5812;48.864;9.190;2023-04-01T03:25:03;8.40;1.00
11511;DHT22;5812;48.864;9.190;2023-04-01T03:27:29;8.30;1.00
11511;DHT22;5812;48.864;9.190;2023-04-01T03:29:55;8.20;1.00
11511;DHT22;5812;48.864;9.190;2023-04-01T03:32:20;8.10;1.00
11511;DHT22;5812;48.864;9.190;2023-04-01T03:34:46;8.10;1.00
11511;DHT22;5812;48.864;9.190;2023-04-01T03:37:11;8.10;1.00
11511;DHT22;5812;48.864;9.190;2023-04-01T03:39:37;8.00;1.00
11511;DHT22;5812;48.864;9.190;2023-04-01T03:42:03;8.00;1.00
11511;DHT22;5812;48.864;9.190;2023-04-01T03:44:32;8.10;1.00
11511;DHT22;5812;48.864;9.190;2023-04-01T03:46:58;8.00;1.00
11511;DHT22;5812;48.864;9.190;2023-04-01T03:49:24;8.10;1.00
11511;DHT22;5812;48.864;9.190;2023-04-01T03:51:49;8.10;1.00
11511;DHT22;5812;48.864;9.190;2023-04-01T03:54:15;8.10;1.00
11511;DHT22;5812;48.864;9.190;2023-04-01T03:56:41;8.10;1.00
11511;DHT22;5812;48.864;9.190;2023-04-01T03:59:07;8.00;1.00
11511;DHT22;5812;48.864;9.190;2023-04-01T04:01:33;7.90;1.00
11511;DHT22;5812;48.864;9.190;2023-04-01T04:03:59;8.00;1.00
11511;DHT22;5812;48.864;9.190;2023-04-01T04:06:26;8.00;1.00
11511;DHT22;5812;48.864;9.190;2023-04-01T04:08:52;8.00;1.00
11511;DHT22;5812;48.864;9.190;2023-04-01T04:11:19;8.00;1.00
11511;DHT22;5812;48.864;9.190;2023-04-01T04:13:45;8.00;1.00
11511;DHT22;5812;48.864;9.190;2023-04-01T04:16:13;8.10;1.00
11511;DHT22;5812;48.864;9.190;2023-04-01T04:18:39;8.10;1.00
11511;DHT22;5812;48.864;9.190;2023-04-01T04:21:04;8.10;1.00
11511;DHT22;5812;48.864;9.190;2023-04-01T04:23:30;8.20;1.00
11511;DHT22;5812;48.864;9.190;2023-04-01T04:25:59;8.30;1.00
11511;DHT22;5812;48.864;9.190;2023-04-01T04:28:26;8.30;1.00
11511;DHT22;5812;48.864;9.190;2023-04-01T04:30:53;8.30;1.00
11511;DHT22;5812;48.864;9.190;2023-04-01T04:33:19;8.30;1.00
11511;DHT22;5812;48.864;9.190;2023-04-01T04:35:45;8.20;1.00
11511;DHT22;5812;48.864;9.190;2023-04-01T04:38:11;8.30;1.00
11511;DHT22;5812;48.864;9.190;2023-04-01T04:40:37;8.20;1.00
11511;DHT22;5812;48.864;9.190;2023-04-01T04:43:04;8.30;1.00
11511;DHT22;5812;48.864;9.190;2023-04-01T04:45:30;8.30;1.00
11511;DHT22;5812;48.864;9.190;2023-04-01T04:47:56;8.30;1.00
11511;DHT22;5812;48.864;9.190;2023-04-01T04:50:22;8.40;1.00
11511;DHT22;5812;48.864;9.190;2023-04-01T04:52:48;8.30;1.00
11511;DHT22;5812;48.864;9.190;2023-04-01T04:55:14;8.30;1.00
11511;DHT22;5812;48.864;9.190;2023-04-01T04:57:40;8.20;1.00
11511;DHT22;5812;48.864;9.190;2023-04-01T05:00:06;8.20;1.00
11511;DHT22;5812;48.864;9.190;2023-04-01T05:02:33;8.20;1.00
11511;DHT22;5812;48.864;9.190;2023-04-01T05:04:58;8.10;1.00
11511;DHT22;5812;48.864;9.190;2023-04-01T05:07:24;8.10;1.00
11511;DHT22;5812;48.864;9.190;2023-04-01T05:09:49;8.10;1.00
11511;DHT22;5812;48.864;9.190;2023-04-01T05:12:15;8.10;1.00
11511;DHT22;5812;48.864;9.190;2023-04-01T05:14:40;8.10;1.00
11511;DHT22;5812;48.864;9.190;2023-04-01T05:17:10;8.10;1.00
11511;DHT22;5812;48.864;9.190;2023-04-01T05:19:36;8.20;1.00
11511;DHT22;5812;48.864;9.190;2023-04-01T05:22:01;8.20;1.00
11511;DHT22;5812;48.864;9.190;2023-04-01T05:24:27;8.10;1.00
11511;DHT22;5812;48.864;9.190;2023-04-01T05:26:53;8.10;1.00
11511;DHT22;5812;48.864;9.190;2023-04-01T05:29:18;8.10;1.00
11511;DHT22;5812;48.864;9.190;2023-04-01T05:31:44;8.00;1.00
11511;DHT22;5812;48.864;9.190;2023-04-01T05:34:09;8.10;1.00
11511;DHT22;5812;48.864;9.190;2023-04-01T05:36:35;8.10;1.00
11511;DHT22;5812;48.864;9.190;2023-04-01T05:39:02;8.20;1.00
11511;DHT22;5812;48.864;9.190;2023-04-01T05:41:27;8.20;1.00
11511;DHT22;5812;48.864;9.190;2023-04-01T05:43:53;8.20;1.00
11511;DHT22;5812;48.864;9.190;2023-04-01T05:46:19;8.20;1.00
11511;DHT22;5812;48.864;9.190;2023-04-01T05:48:44;8.20;1.00
11511;DHT22;5812;48.864;9.190;2023-04-01T05:51:14;8.30;1.00
11511;DHT22;5812;48.864;9.190;2023-04-01T05:53:40;8.50;1.00
11511;DHT22;5812;48.864;9.190;2023-04-01T05:56:06;8.60;1.00
11511;DHT22;5812;48.864;9.190;2023-04-01T05:58:35;8.60;1.00
11511;DHT22;5812;48.864;9.190;2023-04-01T06:01:12;8.70;1.00
11511;DHT22;5812;48.864;9.190;2023-04-01T06:03:37;8.80;1.00
11511;DHT22;5812;48.864;9.190;2023-04-01T06:06:03;8.90;1.00
11511;DHT22;5812;48.864;9.190;2023-04-01T06:08:32;9.00;1.00
11511;DHT22;5812;48.864;9.190;2023-04-01T06:16:26;9.40;1.00
11511;DHT22;5812;48.864;9.190;2023-04-01T06:33:13;9.60;1.00
11511;DHT22;5812;48.864;9.190;2023-04-01T06:43:59;9.70;99.90
11511;DHT22;5812;48.864;9.190;2023-04-01T06:46:47;9.70;99.90
11511;DHT22;5812;48.864;9.190;2023-04-01T06:53:42;9.70;99.90
11511;DHT22;5812;48.864;9.190;2023-04-01T06:58:05;9.70;99.90
11511;DHT22;5812;48.864;9.190;2023-04-01T07:00:40;9.70;99.90
11511;DHT22;5812;48.864;9.190;2023-04-01T07:03:21;9.80;99.90
11511;DHT22;5812;48.864;9.190;2023-04-01T07:05:48;9.80;99.90
11511;DHT22;5812;48.864;9.190;2023-04-01T07:08:25;9.80;99.90
11511;DHT22;5812;48.864;9.190;2023-04-01T07:11:02;9.80;99.90
11511;DHT22;5812;48.864;9.190;2023-04-01T07:13:54;9.80;99.90
11511;DHT22;5812;48.864;9.190;2023-04-01T07:19:08;9.80;99.90
11511;DHT22;5812;48.864;9.190;2023-04-01T07:24:15;9.90;99.90
11511;DHT22;5812;48.864;9.190;2023-04-01T07:26:43;9.90;99.90
11511;DHT22;5812;48.864;9.190;2023-04-01T07:29:13;9.80;99.90
11511;DHT22;5812;48.864;9.190;2023-04-01T07:34:26;9.70;99.90
11511;DHT22;5812;48.864;9.190;2023-04-01T07:40:22;9.80;99.90
11511;DHT22;5812;48.864;9.190;2023-04-01T07:43:21;9.70;99.90
11511;DHT22;5812;48.864;9.190;2023-04-01T07:46:07;9.80;99.90
11511;DHT22;5812;48.864;9.190;2023-04-01T07:49:01;9.80;99.90
11511;DHT22;5812;48.864;9.190;2023-04-01T07:54:42;9.90;99.90
11511;DHT22;5812;48.864;9.190;2023-04-01T07:57:17;10.00;99.90
11511;DHT22;5812;48.864;9.190;2023-04-01T08:00:14;10.00;99.90
11511;DHT22;5812;48.864;9.190;2023-04-01T08:05:41;10.20;99.90
11511;DHT22;5812;48.864;9.190;2023-04-01T08:11:04;10.20;99.90
11511;DHT22;5812;48.864;9.190;2023-04-01T08:16:23;10.40;99.90
11511;DHT22;5812;48.864;9.190;2023-04-01T08:18:55;10.50;99.90
11511;DHT22;5812;48.864;9.190;2023-04-01T08:21:29;10.40;99.90
11511;DHT22;5812;48.864;9.190;2023-04-01T08:24:04;10.40;99.90
11511;DHT22;5812;48.864;9.190;2023-04-01T08:26:39;10.30;99.90
11511;DHT22;5812;48.864;9.190;2023-04-01T08:29:17;10.20;99.90
11511;DHT22;5812;48.864;9.190;2023-04-01T08:31:58;10.20;99.90
11511;DHT22;5812;48.864;9.190;2023-04-01T08:34:34;10.30;99.90
11511;DHT22;5812;48.864;9.190;2023-04-01T08:37:05;10.30;99.90
11511;DHT22;5812;48.864;9.190;2023-04-01T08:39:39;10.30;99.90
11511;DHT22;5812;48.864;9.190;2023-04-01T08:42:41;10.00;99.90
11511;DHT22;5812;48.864;9.190;2023-04-01T08:48:34;9.20;1.00
11511;DHT22;5812;48.864;9.190;2023-04-01T08:51:16;8.80;1.00
11511;DHT22;5812;48.864;9.190;2023-04-01T08:56:50;8.90;1.00
11511;DHT22;5812;48.864;9.190;2023-04-01T09:13:27;9.00;1.00
11511;DHT22;5812;48.864;9.190;2023-04-01T09:24:56;9.50;1.00
11511;DHT22;5812;48.864;9.190;2023-04-01T09:27:32;9.80;1.00
11511;DHT22;5812;48.864;9.190;2023-04-01T09:33:05;10.00;1.00
11511;DHT22;5812;48.864;9.190;2023-04-01T09:35:42;10.20;1.00
11511;DHT22;5812;48.864;9.190;2023-04-01T09:41:29;10.20;1.00
11511;DHT22;5812;48.864;9.190;2023-04-01T09:44:00;10.20;1.00
11511;DHT22;5812;48.864;9.190;2023-04-01T09:52:25;9.90;1.00
11511;DHT22;5812;48.864;9.190;2023-04-01T10:00:52;10.00;1.00
11511;DHT22;5812;48.864;9.190;2023-04-01T10:09:30;10.10;99.90
11511;DHT22;5812;48.864;9.190;2023-04-01T10:45:49;10.30;99.90
11511;DHT22;5812;48.864;9.190;2023-04-01T10:51:16;10.00;99.90
11511;DHT22;5812;48.864;9.190;2023-04-01T10:56:55;10.10;99.90
11511;DHT22;5812;48.864;9.190;2023-04-01T11:02:55;10.30;99.90
11511;DHT22;5812;48.864;9.190;2023-04-01T11:05:58;10.50;99.90
11511;DHT22;5812;48.864;9.190;2023-04-01T11:14:24;10.80;99.90
11511;DHT22;5812;48.864;9.190;2023-04-01T11:22:50;10.90;99.90
11511;DHT22;5812;48.864;9.190;2023-04-01T11:25:29;11.10;99.90
11511;DHT22;5812;48.864;9.190;2023-04-01T11:45:23;11.90;99.90
11511;DHT22;5812;48.864;9.190;2023-04-01T11:53:32;11.90;99.90
11511;DHT22;5812;48.864;9.190;2023-04-01T12:04:25;11.40;99.90
11511;DHT22;5812;48.864;9.190;2023-04-01T12:15:53;11.30;99.90
11511;DHT22;5812;48.864;9.190;2023-04-01T12:21:03;11.40;99.90
11511;DHT22;5812;48.864;9.190;2023-04-01T12:26:53;11.70;99.90
11511;DHT22;5812;48.864;9.190;2023-04-01T12:46:24;11.60;99.90
11511;DHT22;5812;48.864;9.190;2023-04-01T12:54:37;11.70;99.90
11511;DHT22;5812;48.864;9.190;2023-04-01T13:00:03;11.50;99.90
11511;DHT22;5812;48.864;9.190;2023-04-01T13:14:18;11.50;99.90
11511;DHT22;5812;48.864;9.190;2023-04-01T13:16:53;11.20;99.90
11511;DHT22;5812;48.864;9.190;2023-04-01T13:22:02;11.10;99.90
11511;DHT22;5812;48.864;9.190;2023-04-01T13:24:45;11.10;99.90
11511;DHT22;5812;48.864;9.190;2023-04-01T13:27:20;11.00;99.90
11511;DHT22;5812;48.864;9.190;2023-04-01T13:38:52;11.30;99.90
11511;DHT22;5812;48.864;9.190;2023-04-01T13:41:42;11.30;99.90
11511;DHT22;5812;48.864;9.190;2023-04-01T13:57:48;11.30;99.90
11511;DHT22;5812;48.864;9.190;2023-04-01T14:00:25;11.20;99.90
11511;DHT22;5812;48.864;9.190;2023-04-01T14:14:23;11.40;99.90
11511;DHT22;5812;48.864;9.190;2023-04-01T14:20:14;11.40;99.90
11511;DHT22;5812;48.864;9.190;2023-04-01T14:28:46;11.20;99.90
11511;DHT22;5812;48.864;9.190;2023-04-01T14:31:21;11.20;99.90
11511;DHT22;5812;48.864;9.190;2023-04-01T14:39:33;10.60;99.90
11511;DHT22;5812;48.864;9.190;2023-04-01T14:47:59;10.40;99.90
11511;DHT22;5812;48.864;9.190;2023-04-01T14:50:40;10.30;99.90
11511;DHT22;5812;48.864;9.190;2023-04-01T14:53:18;10.20;99.90
11511;DHT22;5812;48.864;9.190;2023-04-01T14:56:02;10.00;99.90
11511;DHT22;5812;48.864;9.190;2023-04-01T14:58:41;10.00;1.00
11511;DHT22;5812;48.864;9.190;2023-04-01T15:04:02;10.10;99.90
11511;DHT22;5812;48.864;9.190;2023-04-01T15:09:27;10.50;99.90
11511;DHT22;5812;48.864;9.190;2023-04-01T15:12:11;10.60;99.90
11511;DHT22;5812;48.864;9.190;2023-04-01T15:20:16;11.00;99.90
11511;DHT22;5812;48.864;9.190;2023-04-01T15:23:13;11.00;99.90
11511;DHT22;5812;48.864;9.190;2023-04-01T15:29:00;11.00;99.90
11511;DHT22;5812;48.864;9.190;2023-04-01T15:31:54;11.00;99.90
11511;DHT22;5812;48.864;9.190;2023-04-01T15:34:29;11.00;99.90
11511;DHT22;5812;48.864;9.190;2023-04-01T15:37:16;11.00;99.90
11511;DHT22;5812;48.864;9.190;2023-04-01T15:43:10;10.90;99.90
11511;DHT22;5812;48.864;9.190;2023-04-01T15:50:53;10.90;99.90
11511;DHT22;5812;48.864;9.190;2023-04-01T15:53:37;10.90;99.90
11511;DHT22;5812;48.864;9.190;2023-04-01T15:56:44;10.80;99.90
11511;DHT22;5812;48.864;9.190;2023-04-01T16:01:59;10.80;99.90
11511;DHT22;5812;48.864;9.190;2023-04-01T16:24:15;10.60;99.90
11511;DHT22;5812;48.864;9.190;2023-04-01T16:26:52;10.60;99.90
11511;DHT22;5812;48.864;9.190;2023-04-01T16:29:45;10.60;99.90
11511;DHT22;5812;48.864;9.190;2023-04-01T16:35:22;10.60;99.90
11511;DHT22;5812;48.864;9.190;2023-04-01T16:38:15;10.60;99.90
11511;DHT22;5812;48.864;9.190;2023-04-01T16:43:38;10.60;99.90
11511;DHT22;5812;48.864;9.190;2023-04-01T16:54:28;10.50;99.90
11511;DHT22;5812;48.864;9.190;2023-04-01T16:57:01;10.60;99.90
11511;DHT22;5812;48.864;9.190;2023-04-01T16:59:43;10.50;99.90
11511;DHT22;5812;48.864;9.190;2023-04-01T17:02:15;10.40;99.90
11511;DHT22;5812;48.864;9.190;2023-04-01T17:04:59;10.40;99.90
11511;DHT22;5812;48.864;9.190;2023-04-01T17:10:06;10.40;99.90
11511;DHT22;5812;48.864;9.190;2023-04-01T17:16:04;10.30;99.90
11511;DHT22;5812;48.864;9.190;2023-04-01T17:18:39;10.30;99.90
11511;DHT22;5812;48.864;9.190;2023-04-01T17:21:15;10.30;99.90
11511;DHT22;5812;48.864;9.190;2023-04-01T17:23:53;10.30;99.90
11511;DHT22;5812;48.864;9.190;2023-04-01T17:26:42;10.30;99.90
11511;DHT22;5812;48.864;9.190;2023-04-01T17:29:20;10.30;99.90
11511;DHT22;5812;48.864;9.190;2023-04-01T17:34:44;10.40;99.90
11511;DHT22;5812;48.864;9.190;2023-04-01T17:37:30;10.40;99.90
11511;DHT22;5812;48.864;9.190;2023-04-01T17:45:33;10.50;99.90
11511;DHT22;5812;48.864;9.190;2023-04-01T17:59:39;10.30;99.90
11511;DHT22;5812;48.864;9.190;2023-04-01T18:02:32;10.10;99.90
11511;DHT22;5812;48.864;9.190;2023-04-01T18:22:09;9.60;99.90
11511;DHT22;5812;48.864;9.190;2023-04-01T18:24:56;9.60;99.90
11511;DHT22;5812;48.864;9.190;2023-04-01T18:27:24;9.60;99.90
11511;DHT22;5812;48.864;9.190;2023-04-01T18:33:02;9.50;99.90
11511;DHT22;5812;48.864;9.190;2023-04-01T18:35:53;9.50;99.90
11511;DHT22;5812;48.864;9.190;2023-04-01T18:38:30;9.40;99.90
11511;DHT22;5812;48.864;9.190;2023-04-01T18:49:52;9.10;99.90
11511;DHT22;5812;48.864;9.190;2023-04-01T18:52:23;9.10;99.90
11511;DHT22;5812;48.864;9.190;2023-04-01T18:57:50;9.10;99.90
11511;DHT22;5812;48.864;9.190;2023-04-01T19:00:22;9.20;99.90
11511;DHT22;5812;48.864;9.190;2023-04-01T19:03:31;9.20;99.90
11511;DHT22;5812;48.864;9.190;2023-04-01T19:05:55;9.20;99.90
11511;DHT22;5812;48.864;9.190;2023-04-01T19:08:34;9.30;99.90
11511;DHT22;5812;48.864;9.190;2023-04-01T19:11:05;9.10;99.90
11511;DHT22;5812;48.864;9.190;2023-04-01T19:18:49;8.80;99.90
11511;DHT22;5812;48.864;9.190;2023-04-01T19:24:43;8.70;99.90
11511;DHT22;5812;48.864;9.190;2023-04-01T19:27:26;8.50;99.90
11511;DHT22;5812;48.864;9.190;2023-04-01T19:30:26;8.40;99.90
11511;DHT22;5812;48.864;9.190;2023-04-01T19:38:29;8.50;99.90
11511;DHT22;5812;48.864;9.190;2023-04-01T19:47:07;8.30;99.90
11511;DHT22;5812;48.864;9.190;2023-04-01T19:49:43;8.20;99.90
11511;DHT22;5812;48.864;9.190;2023-04-01T19:52:32;8.30;99.90
11511;DHT22;5812;48.864;9.190;2023-04-01T19:55:03;8.10;99.90
11511;DHT22;5812;48.864;9.190;2023-04-01T20:00:31;8.20;99.90
11511;DHT22;5812;48.864;9.190;2023-04-01T20:03:05;8.30;99.90
11511;DHT22;5812;48.864;9.190;2023-04-01T20:06:02;8.40;99.90
11511;DHT22;5812;48.864;9.190;2023-04-01T20:08:45;8.40;99.90
11511;DHT22;5812;48.864;9.190;2023-04-01T20:14:24;8.60;99.90
11511;DHT22;5812;48.864;9.190;2023-04-01T20:16:59;8.60;99.90
11511;DHT22;5812;48.864;9.190;2023-04-01T20:19:28;8.60;99.90
11511;DHT22;5812;48.864;9.190;2023-04-01T20:21:57;8.70;99.90
11511;DHT22;5812;48.864;9.190;2023-04-01T20:24:37;8.80;99.90
11511;DHT22;5812;48.864;9.190;2023-04-01T20:27:29;8.80;99.90
11511;DHT22;5812;48.864;9.190;2023-04-01T20:30:21;8.80;99.90
11511;DHT22;5812;48.864;9.190;2023-04-01T20:35:36;8.90;99.90
11511;DHT22;5812;48.864;9.190;2023-04-01T20:38:55;8.90;99.90
11511;DHT22;5812;48.864;9.190;2023-04-01T20:41:27;9.00;99.90
11511;DHT22;5812;48.864;9.190;2023-04-01T20:44:09;9.00;99.90
11511;DHT22;5812;48.864;9.190;2023-04-01T20:47:01;9.00;99.90
11511;DHT22;5812;48.864;9.190;2023-04-01T20:50:18;9.00;99.90
11511;DHT22;5812;48.864;9.190;2023-04-01T20:52:56;9.00;99.90
11511;DHT22;5812;48.864;9.190;2023-04-01T21:04:27;8.90;99.90
11511;DHT22;5812;48.864;9.190;2023-04-01T21:07:08;8.90;99.90
11511;DHT22;5812;48.864;9.190;2023-04-01T21:15:45;8.90;99.90
11511;DHT22;5812;48.864;9.190;2023-04-01T21:31:49;8.90;99.90
11511;DHT22;5812;48.864;9.190;2023-04-01T21:40:20;9.00;99.90
11511;DHT22;5812;48.864;9.190;2023-04-01T21:57:48;9.00;99.90
11511;DHT22;5812;48.864;9.190;2023-04-01T22:00:33;9.10;99.90
11511;DHT22;5812;48.864;9.190;2023-04-01T22:06:09;9.00;99.90
11511;DHT22;5812;48.864;9.190;2023-04-01T22:11:48;9.00;99.90
11511;DHT22;5812;48.864;9.190;2023-04-01T22:14:30;9.00;99.90
11511;DHT22;5812;48.864;9.190;2023-04-01T22:16:59;9.00;99.90
11511;DHT22;5812;48.864;9.190;2023-04-01T22:25:39;9.00;99.90
11511;DHT22;5812;48.864;9.190;2023-04-01T22:28:12;9.00;99.90
11511;DHT22;5812;48.864;9.190;2023-04-01T22:30:52;8.90;99.90
11511;DHT22;5812;48.864;9.190;2023-04-01T22:33:21;8.90;99.90
11511;DHT22;5812;48.864;9.190;2023-04-01T22:43:56;8.90;99.90
11511;DHT22;5812;48.864;9.190;2023-04-01T22:46:35;8.90;99.90
11511;DHT22;5812;48.864;9.190;2023-04-01T22:49:27;8.90;99.90
11511;DHT22;5812;48.864;9.190;2023-04-01T22:54:54;8.80;99.90
11511;DHT22;5812;48.864;9.190;2023-04-01T23:00:17;8.90;99.90
11511;DHT22;5812;48.864;9.190;2023-04-01T23:03:30;8.80;99.90
11511;DHT22;5812;48.864;9.190;2023-04-01T23:05:58;8.90;99.90
11511;DHT22;5812;48.864;9.190;2023-04-01T23:11:21;8.80;99.90
11511;DHT22;5812;48.864;9.190;2023-04-01T23:14:03;8.80;99.90
11511;DHT22;5812;48.864;9.190;2023-04-01T23:16:41;8.80;99.90
11511;DHT22;5812;48.864;9.190;2023-04-01T23:19:17;8.80;99.90
11511;DHT22;5812;48.864;9.190;2023-04-01T23:22:36;8.80;99.90
11511;DHT22;5812;48.864;9.190;2023-04-01T23:24:52;8.80;99.90
11511;DHT22;5812;48.864;9.190;2023-04-01T23:27:40;8.80;99.90
11511;DHT22;5812;48.864;9.190;2023-04-01T23:36:03;8.80;99.90
11511;DHT22;5812;48.864;9.190;2023-04-01T23:38:40;8.80;99.90
11511;DHT22;5812;48.864;9.190;2023-04-01T23:41:18;8.80;99.90
11511;DHT22;5812;48.864;9.190;2023-04-01T23:43:48;8.80;99.90
11511;DHT22;5812;48.864;9.190;2023-04-01T23:46:15;8.70;99.90
11511;DHT22;5812;48.864;9.190;2023-04-01T23:48:44;8.70;99.90
11511;DHT22;5812;48.864;9.190;2023-04-01T23:53:45;8.70;99.90
11511;DHT22;5812;48.864;9.190;2023-04-01T23:56:11;8.80;99.90
11511;DHT22;5812;48.864;9.190;2023-04-01T23:58:47;8.80;99.90
